sensor_id;sensor_type;location;lat;lon;timestamp;temperature;humidity
36384;DHT22;22418;51.210;6.976;2023-08-12T00:00:58;21.20;99.90
36384;DHT22;22418;51.210;6.976;2023-08-12T00:03:29;21.20;99.90
36384;DHT22;22418;51.210;6.976;2023-08-12T00:05:59;21.20;99.90
36384;DHT22;22418;51.210;6.976;2023-08-12T00:08:32;21.20;99.90
36384;DHT22;22418;51.210;6.976;2023-08-12T00:11:02;21.20;99.90
36384;DHT22;22418;51.210;6.976;2023-08-12T00:13:32;21.10;99.90
36384;DHT22;22418;51.210;6.976;2023-08-12T00:16:03;21.10;99.90
36384;DHT22;22418;51.210;6.976;2023-08-12T00:18:33;21.10;99.90
36384;DHT22;22418;51.210;6.976;2023-08-12T00:21:07;21.10;99.90
36384;DHT22;22418;51.210;6.976;2023-08-12T00:23:39;21.10;99.90
36384;DHT22;22418;51.210;6.976;2023-08-12T00:26:10;21.10;99.90
36384;DHT22;22418;51.210;6.976;2023-08-12T00:28:41;21.10;99.90
36384;DHT22;22418;51.210;6.976;2023-08-12T00:31:11;21.10;99.90
36384;DHT22;22418;51.210;6.976;2023-08-12T00:33:42;21.10;99.90
36384;DHT22;22418;51.210;6.976;2023-08-12T00:36:12;21.00;99.90
36384;DHT22;22418;51.210;6.976;2023-08-12T00:38:43;21.00;99.90
36384;DHT22;22418;51.210;6.976;2023-08-12T00:41:13;21.10;99.90
36384;DHT22;22418;51.210;6.976;2023-08-12T00:43:43;21.00;99.90
36384;DHT22;22418;51.210;6.976;2023-08-12T00:46:14;21.10;99.90
36384;DHT22;22418;51.210;6.976;2023-08-12T00:48:45;21.00;99.90
36384;DHT22;22418;51.210;6.976;2023-08-12T00:51:15;21.10;99.90
36384;DHT22;22418;51.210;6.976;2023-08-12T00:53:46;21.10;99.90
36384;DHT22;22418;51.210;6.976;2023-08-12T00:56:17;21.10;99.90
36384;DHT22;22418;51.210;6.976;2023-08-12T00:58:47;21.10;99.90
36384;DHT22;22418;51.210;6.976;2023-08-12T01:01:18;21.10;99.90
36384;DHT22;22418;51.210;6.976;2023-08-12T01:03:49;21.10;99.90
36384;DHT22;22418;51.210;6.976;2023-08-12T01:06:19;21.00;99.90
36384;DHT22;22418;51.210;6.976;2023-08-12T01:08:50;21.00;99.90
36384;DHT22;22418;51.210;6.976;2023-08-12T01:11:23;21.00;99.90
36384;DHT22;22418;51.210;6.976;2023-08-12T01:14:01;21.00;99.90
36384;DHT22;22418;51.210;6.976;2023-08-12T01:16:35;20.90;99.90
36384;DHT22;22418;51.210;6.976;2023-08-12T01:19:09;20.90;99.90
36384;DHT22;22418;51.210;6.976;2023-08-12T01:21:41;20.90;99.90
36384;DHT22;22418;51.210;6.976;2023-08-12T01:24:13;20.90;99.90
36384;DHT22;22418;51.210;6.976;2023-08-12T01:26:44;20.90;99.90
36384;DHT22;22418;51.210;6.976;2023-08-12T01:29:14;20.90;99.90
36384;DHT22;22418;51.210;6.976;2023-08-12T01:31:52;20.90;99.90
36384;DHT22;22418;51.210;6.976;2023-08-12T01:34:48;20.80;99.90
36384;DHT22;22418;51.210;6.976;2023-08-12T01:37:24;20.90;99.90
36384;DHT22;22418;51.210;6.976;2023-08-12T01:39:55;20.90;99.90
36384;DHT22;22418;51.210;6.976;2023-08-12T01:42:27;20.80;99.90
36384;DHT22;22418;51.210;6.976;2023-08-12T01:44:58;20.70;99.90
36384;DHT22;22418;51.210;6.976;2023-08-12T01:47:28;20.70;99.90
36384;DHT22;22418;51.210;6.976;2023-08-12T01:49:59;20.70;99.90
36384;DHT22;22418;51.210;6.976;2023-08-12T01:52:29;20.60;99.90
36384;DHT22;22418;51.210;6.976;2023-08-12T01:55:00;20.70;99.90
36384;DHT22;22418;51.210;6.976;2023-08-12T01:57:30;20.70;99.90
36384;DHT22;22418;51.210;6.976;2023-08-12T02:00:01;20.60;99.90
36384;DHT22;22418;51.210;6.976;2023-08-12T02:02:32;20.70;99.90
36384;DHT22;22418;51.210;6.976;2023-08-12T02:05:02;20.60;99.90
36384;DHT22;22418;51.210;6.976;2023-08-12T02:07:33;20.70;99.90
36384;DHT22;22418;51.210;6.976;2023-08-12T02:10:03;20.70;99.90
36384;DHT22;22418;51.210;6.976;2023-08-12T02:12:34;20.70;99.90
36384;DHT22;22418;51.210;6.976;2023-08-12T02:15:05;20.70;99.90
36384;DHT22;22418;51.210;6.976;2023-08-12T02:17:36;20.70;99.90
36384;DHT22;22418;51.210;6.976;2023-08-12T02:20:07;20.70;99.90
36384;DHT22;22418;51.210;6.976;2023-08-12T02:22:37;20.80;99.90
36384;DHT22;22418;51.210;6.976;2023-08-12T02:25:08;20.70;99.90
36384;DHT22;22418;51.210;6.976;2023-08-12T02:27:38;20.70;99.90
36384;DHT22;22418;51.210;6.976;2023-08-12T02:30:09;20.70;99.90
36384;DHT22;22418;51.210;6.976;2023-08-12T02:32:39;20.70;99.90
36384;DHT22;22418;51.210;6.976;2023-08-12T02:35:13;20.70;99.90
36384;DHT22;22418;51.210;6.976;2023-08-12T02:37:43;20.70;99.90
36384;DHT22;22418;51.210;6.976;2023-08-12T02:40:14;20.70;99.90
36384;DHT22;22418;51.210;6.976;2023-08-12T02:42:45;20.80;99.90
36384;DHT22;22418;51.210;6.976;2023-08-12T02:45:15;20.70;99.90
36384;DHT22;22418;51.210;6.976;2023-08-12T02:47:46;20.80;99.90
36384;DHT22;22418;51.210;6.976;2023-08-12T02:50:16;20.80;99.90
36384;DHT22;22418;51.210;6.976;2023-08-12T02:52:46;20.80;99.90
36384;DHT22;22418;51.210;6.976;2023-08-12T02:55:17;20.80;99.90
36384;DHT22;22418;51.210;6.976;2023-08-12T02:57:47;20.80;99.90
36384;DHT22;22418;51.210;6.976;2023-08-12T03:00:18;20.80;99.90
36384;DHT22;22418;51.210;6.976;2023-08-12T03:02:49;20.80;99.90
36384;DHT22;22418;51.210;6.976;2023-08-12T03:05:19;20.80;99.90
36384;DHT22;22418;51.210;6.976;2023-08-12T03:07:50;20.80;99.90
36384;DHT22;22418;51.210;6.976;2023-08-12T03:10:22;20.80;99.90
36384;DHT22;22418;51.210;6.976;2023-08-12T03:12:52;20.80;99.90
36384;DHT22;22418;51.210;6.976;2023-08-12T03:15:23;20.80;99.90
36384;DHT22;22418;51.210;6.976;2023-08-12T03:17:55;20.80;99.90
36384;DHT22;22418;51.210;6.976;2023-08-12T03:20:25;20.80;99.90
36384;DHT22;22418;51.210;6.976;2023-08-12T03:22:56;20.80;99.90
36384;DHT22;22418;51.210;6.976;2023-08-12T03:25:26;20.80;99.90
36384;DHT22;22418;51.210;6.976;2023-08-12T03:27:57;20.80;99.90
36384;DHT22;22418;51.210;6.976;2023-08-12T03:30:27;20.80;99.90
36384;DHT22;22418;51.210;6.976;2023-08-12T03:32:58;20.80;99.90
36384;DHT22;22418;51.210;6.976;2023-08-12T03:35:28;20.80;99.90
36384;DHT22;22418;51.210;6.976;2023-08-12T03:37:59;20.80;99.90
36384;DHT22;22418;51.210;6.976;2023-08-12T03:40:29;20.80;99.90
36384;DHT22;22418;51.210;6.976;2023-08-12T03:42:59;20.80;99.90
36384;DHT22;22418;51.210;6.976;2023-08-12T03:45:30;20.80;99.90
36384;DHT22;22418;51.210;6.976;2023-08-12T03:48:00;20.80;99.90
36384;DHT22;22418;51.210;6.976;2023-08-12T03:50:34;20.80;99.90
36384;DHT22;22418;51.210;6.976;2023-08-12T03:53:05;20.80;99.90
36384;DHT22;22418;51.210;6.976;2023-08-12T03:55:36;20.80;99.90
36384;DHT22;22418;51.210;6.976;2023-08-12T03:58:06;20.80;99.90
36384;DHT22;22418;51.210;6.976;2023-08-12T04:00:40;20.80;99.90
36384;DHT22;22418;51.210;6.976;2023-08-12T04:03:11;20.80;99.90
36384;DHT22;22418;51.210;6.976;2023-08-12T04:05:48;20.80;99.90
36384;DHT22;22418;51.210;6.976;2023-08-12T04:08:19;20.80;99.90
36384;DHT22;22418;51.210;6.976;2023-08-12T04:10:50;20.70;99.90
36384;DHT22;22418;51.210;6.976;2023-08-12T04:13:20;20.60;99.90
36384;DHT22;22418;51.210;6.976;2023-08-12T04:15:51;20.60;99.90
36384;DHT22;22418;51.210;6.976;2023-08-12T04:18:23;20.50;99.90
36384;DHT22;22418;51.210;6.976;2023-08-12T04:20:53;20.50;99.90
36384;DHT22;22418;51.210;6.976;2023-08-12T04:23:24;20.50;99.90
36384;DHT22;22418;51.210;6.976;2023-08-12T04:25:54;20.50;99.90
36384;DHT22;22418;51.210;6.976;2023-08-12T04:28:25;20.50;99.90
36384;DHT22;22418;51.210;6.976;2023-08-12T04:30:55;20.50;99.90
36384;DHT22;22418;51.210;6.976;2023-08-12T04:33:26;20.60;99.90
36384;DHT22;22418;51.210;6.976;2023-08-12T04:35:57;20.60;99.90
36384;DHT22;22418;51.210;6.976;2023-08-12T04:38:28;20.70;99.90
36384;DHT22;22418;51.210;6.976;2023-08-12T04:40:58;20.70;99.90
36384;DHT22;22418;51.210;6.976;2023-08-12T04:43:29;20.70;99.90
36384;DHT22;22418;51.210;6.976;2023-08-12T04:45:59;20.80;99.90
36384;DHT22;22418;51.210;6.976;2023-08-12T04:48:30;20.80;99.90
36384;DHT22;22418;51.210;6.976;2023-08-12T04:51:01;20.80;99.90
36384;DHT22;22418;51.210;6.976;2023-08-12T04:53:33;20.80;99.90
36384;DHT22;22418;51.210;6.976;2023-08-12T04:56:03;20.90;99.90
36384;DHT22;22418;51.210;6.976;2023-08-12T04:58:34;20.90;99.90
36384;DHT22;22418;51.210;6.976;2023-08-12T05:01:04;20.90;99.90
36384;DHT22;22418;51.210;6.976;2023-08-12T05:03:35;21.00;99.90
36384;DHT22;22418;51.210;6.976;2023-08-12T05:06:05;21.00;99.90
36384;DHT22;22418;51.210;6.976;2023-08-12T05:08:36;21.10;99.90
36384;DHT22;22418;51.210;6.976;2023-08-12T05:11:06;21.10;99.90
36384;DHT22;22418;51.210;6.976;2023-08-12T05:13:37;21.20;99.90
36384;DHT22;22418;51.210;6.976;2023-08-12T05:16:07;21.20;99.90
36384;DHT22;22418;51.210;6.976;2023-08-12T05:18:37;21.40;99.90
36384;DHT22;22418;51.210;6.976;2023-08-12T05:21:08;21.50;99.90
36384;DHT22;22418;51.210;6.976;2023-08-12T05:23:38;21.60;99.90
36384;DHT22;22418;51.210;6.976;2023-08-12T05:26:09;21.50;99.90
36384;DHT22;22418;51.210;6.976;2023-08-12T05:28:39;21.50;99.90
36384;DHT22;22418;51.210;6.976;2023-08-12T05:31:10;21.60;99.90
36384;DHT22;22418;51.210;6.976;2023-08-12T05:33:40;21.60;99.90
36384;DHT22;22418;51.210;6.976;2023-08-12T05:36:11;21.50;99.90
36384;DHT22;22418;51.210;6.976;2023-08-12T05:38:41;21.50;99.90
36384;DHT22;22418;51.210;6.976;2023-08-12T05:41:12;21.60;99.90
36384;DHT22;22418;51.210;6.976;2023-08-12T05:43:42;21.50;99.90
36384;DHT22;22418;51.210;6.976;2023-08-12T05:46:13;21.50;99.90
36384;DHT22;22418;51.210;6.976;2023-08-12T05:48:43;21.40;99.90
36384;DHT22;22418;51.210;6.976;2023-08-12T05:51:14;21.40;99.90
36384;DHT22;22418;51.210;6.976;2023-08-12T05:53:44;21.40;99.90
36384;DHT22;22418;51.210;6.976;2023-08-12T05:56:15;21.40;99.90
36384;DHT22;22418;51.210;6.976;2023-08-12T05:58:45;21.40;99.90
36384;DHT22;22418;51.210;6.976;2023-08-12T06:01:16;21.30;99.90
36384;DHT22;22418;51.210;6.976;2023-08-12T06:03:46;21.40;99.90
36384;DHT22;22418;51.210;6.976;2023-08-12T06:06:17;21.30;99.90
36384;DHT22;22418;51.210;6.976;2023-08-12T06:08:47;21.30;99.90
36384;DHT22;22418;51.210;6.976;2023-08-12T06:11:18;21.20;99.90
36384;DHT22;22418;51.210;6.976;2023-08-12T06:13:48;21.20;99.90
36384;DHT22;22418;51.210;6.976;2023-08-12T06:16:19;21.20;99.90
36384;DHT22;22418;51.210;6.976;2023-08-12T06:18:49;21.20;99.90
36384;DHT22;22418;51.210;6.976;2023-08-12T06:21:20;21.20;99.90
36384;DHT22;22418;51.210;6.976;2023-08-12T06:23:50;21.20;99.90
36384;DHT22;22418;51.210;6.976;2023-08-12T06:26:21;21.10;99.90
36384;DHT22;22418;51.210;6.976;2023-08-12T06:28:52;21.10;99.90
36384;DHT22;22418;51.210;6.976;2023-08-12T06:31:22;21.00;99.90
36384;DHT22;22418;51.210;6.976;2023-08-12T06:33:52;21.00;99.90
36384;DHT22;22418;51.210;6.976;2023-08-12T06:36:23;20.90;99.90
36384;DHT22;22418;51.210;6.976;2023-08-12T06:38:53;20.90;99.90
36384;DHT22;22418;51.210;6.976;2023-08-12T06:41:24;20.90;99.90
36384;DHT22;22418;51.210;6.976;2023-08-12T06:43:54;20.80;99.90
36384;DHT22;22418;51.210;6.976;2023-08-12T06:46:25;20.90;99.90
36384;DHT22;22418;51.210;6.976;2023-08-12T06:48:55;20.80;99.90
36384;DHT22;22418;51.210;6.976;2023-08-12T06:51:26;20.80;99.90
36384;DHT22;22418;51.210;6.976;2023-08-12T06:53:56;20.70;99.90
36384;DHT22;22418;51.210;6.976;2023-08-12T06:56:27;20.80;99.90
36384;DHT22;22418;51.210;6.976;2023-08-12T06:58:57;20.80;99.90
36384;DHT22;22418;51.210;6.976;2023-08-12T07:01:28;20.80;99.90
36384;DHT22;22418;51.210;6.976;2023-08-12T07:03:58;20.80;99.90
36384;DHT22;22418;51.210;6.976;2023-08-12T07:06:28;20.80;99.90
36384;DHT22;22418;51.210;6.976;2023-08-12T07:08:59;20.90;99.90
36384;DHT22;22418;51.210;6.976;2023-08-12T07:11:29;21.00;99.90
36384;DHT22;22418;51.210;6.976;2023-08-12T07:14:00;21.10;99.90
36384;DHT22;22418;51.210;6.976;2023-08-12T07:16:30;21.30;99.90
36384;DHT22;22418;51.210;6.976;2023-08-12T07:19:01;21.40;99.90
36384;DHT22;22418;51.210;6.976;2023-08-12T07:21:31;21.50;99.90
36384;DHT22;22418;51.210;6.976;2023-08-12T07:24:02;21.60;99.90
36384;DHT22;22418;51.210;6.976;2023-08-12T07:26:32;21.80;99.90
36384;DHT22;22418;51.210;6.976;2023-08-12T07:29:03;21.90;99.90
36384;DHT22;22418;51.210;6.976;2023-08-12T07:31:33;21.90;99.90
36384;DHT22;22418;51.210;6.976;2023-08-12T07:34:04;21.80;99.90
36384;DHT22;22418;51.210;6.976;2023-08-12T07:36:34;21.70;99.90
36384;DHT22;22418;51.210;6.976;2023-08-12T07:39:05;21.70;99.90
36384;DHT22;22418;51.210;6.976;2023-08-12T07:41:36;21.70;99.90
36384;DHT22;22418;51.210;6.976;2023-08-12T07:44:07;21.60;99.90
36384;DHT22;22418;51.210;6.976;2023-08-12T07:46:38;21.40;99.90
36384;DHT22;22418;51.210;6.976;2023-08-12T07:49:08;21.40;99.90
36384;DHT22;22418;51.210;6.976;2023-08-12T07:51:41;21.50;99.90
36384;DHT22;22418;51.210;6.976;2023-08-12T07:54:12;21.50;99.90
36384;DHT22;22418;51.210;6.976;2023-08-12T07:56:42;21.60;99.90
36384;DHT22;22418;51.210;6.976;2023-08-12T07:59:13;21.60;99.90
36384;DHT22;22418;51.210;6.976;2023-08-12T08:01:43;21.70;99.90
36384;DHT22;22418;51.210;6.976;2023-08-12T08:04:13;21.70;99.90
36384;DHT22;22418;51.210;6.976;2023-08-12T08:06:44;21.70;99.90
36384;DHT22;22418;51.210;6.976;2023-08-12T08:09:14;21.80;99.90
36384;DHT22;22418;51.210;6.976;2023-08-12T08:11:45;21.80;99.90
36384;DHT22;22418;51.210;6.976;2023-08-12T08:14:16;21.80;99.90
36384;DHT22;22418;51.210;6.976;2023-08-12T08:16:47;21.80;99.90
36384;DHT22;22418;51.210;6.976;2023-08-12T08:19:17;21.80;99.90
36384;DHT22;22418;51.210;6.976;2023-08-12T08:21:48;21.70;99.90
36384;DHT22;22418;51.210;6.976;2023-08-12T08:24:18;21.60;99.90
36384;DHT22;22418;51.210;6.976;2023-08-12T08:26:49;21.60;99.90
36384;DHT22;22418;51.210;6.976;2023-08-12T08:29:19;21.60;99.90
36384;DHT22;22418;51.210;6.976;2023-08-12T08:31:50;21.60;99.90
36384;DHT22;22418;51.210;6.976;2023-08-12T08:34:20;21.70;99.90
36384;DHT22;22418;51.210;6.976;2023-08-12T08:36:51;22.00;99.90
36384;DHT22;22418;51.210;6.976;2023-08-12T08:39:21;22.10;99.90
36384;DHT22;22418;51.210;6.976;2023-08-12T08:41:53;22.20;99.90
36384;DHT22;22418;51.210;6.976;2023-08-12T08:44:24;22.30;99.90
36384;DHT22;22418;51.210;6.976;2023-08-12T08:46:58;22.30;99.90
36384;DHT22;22418;51.210;6.976;2023-08-12T08:49:29;22.30;99.90
36384;DHT22;22418;51.210;6.976;2023-08-12T08:52:00;22.30;99.90
36384;DHT22;22418;51.210;6.976;2023-08-12T08:54:31;22.20;99.90
36384;DHT22;22418;51.210;6.976;2023-08-12T08:57:02;22.30;99.90
36384;DHT22;22418;51.210;6.976;2023-08-12T08:59:33;22.50;99.90
36384;DHT22;22418;51.210;6.976;2023-08-12T09:02:04;22.60;99.90
36384;DHT22;22418;51.210;6.976;2023-08-12T09:04:35;22.60;99.90
36384;DHT22;22418;51.210;6.976;2023-08-12T09:07:06;22.50;99.90
36384;DHT22;22418;51.210;6.976;2023-08-12T09:09:36;22.50;99.90
36384;DHT22;22418;51.210;6.976;2023-08-12T09:12:07;22.30;99.90
36384;DHT22;22418;51.210;6.976;2023-08-12T09:14:38;22.30;99.90
36384;DHT22;22418;51.210;6.976;2023-08-12T09:17:09;22.30;99.90
36384;DHT22;22418;51.210;6.976;2023-08-12T09:19:39;22.50;99.90
36384;DHT22;22418;51.210;6.976;2023-08-12T09:22:10;22.60;99.90
36384;DHT22;22418;51.210;6.976;2023-08-12T09:24:40;22.60;99.90
36384;DHT22;22418;51.210;6.976;2023-08-12T09:27:12;22.60;99.90
36384;DHT22;22418;51.210;6.976;2023-08-12T09:29:47;22.70;99.90
36384;DHT22;22418;51.210;6.976;2023-08-12T09:32:18;22.80;99.90
36384;DHT22;22418;51.210;6.976;2023-08-12T09:37:20;23.20;99.90
36384;DHT22;22418;51.210;6.976;2023-08-12T09:39:51;23.30;99.90
36384;DHT22;22418;51.210;6.976;2023-08-12T09:42:22;23.40;99.90
36384;DHT22;22418;51.210;6.976;2023-08-12T09:44:52;23.60;99.90
36384;DHT22;22418;51.210;6.976;2023-08-12T09:47:24;23.60;99.90
36384;DHT22;22418;51.210;6.976;2023-08-12T09:49:55;23.60;99.90
36384;DHT22;22418;51.210;6.976;2023-08-12T09:52:25;23.60;99.90
36384;DHT22;22418;51.210;6.976;2023-08-12T09:54:56;23.70;99.90
36384;DHT22;22418;51.210;6.976;2023-08-12T09:57:26;23.60;99.90
36384;DHT22;22418;51.210;6.976;2023-08-12T09:59:59;23.50;99.90
36384;DHT22;22418;51.210;6.976;2023-08-12T10:02:30;23.20;99.90
36384;DHT22;22418;51.210;6.976;2023-08-12T10:05:01;23.20;99.90
36384;DHT22;22418;51.210;6.976;2023-08-12T10:07:32;23.20;99.90
36384;DHT22;22418;51.210;6.976;2023-08-12T10:10:02;23.20;99.90
36384;DHT22;22418;51.210;6.976;2023-08-12T10:12:35;23.30;99.90
36384;DHT22;22418;51.210;6.976;2023-08-12T10:15:06;23.40;99.90
36384;DHT22;22418;51.210;6.976;2023-08-12T10:17:37;23.40;99.90
36384;DHT22;22418;51.210;6.976;2023-08-12T10:20:08;23.50;99.90
36384;DHT22;22418;51.210;6.976;2023-08-12T10:22:39;23.40;99.90
36384;DHT22;22418;51.210;6.976;2023-08-12T10:25:10;23.40;99.90
36384;DHT22;22418;51.210;6.976;2023-08-12T10:27:43;23.30;99.90
36384;DHT22;22418;51.210;6.976;2023-08-12T10:30:14;23.20;99.90
36384;DHT22;22418;51.210;6.976;2023-08-12T10:32:45;23.20;99.90
36384;DHT22;22418;51.210;6.976;2023-08-12T10:35:16;23.00;99.90
36384;DHT22;22418;51.210;6.976;2023-08-12T10:37:50;23.00;99.90
36384;DHT22;22418;51.210;6.976;2023-08-12T10:40:21;22.90;99.90
36384;DHT22;22418;51.210;6.976;2023-08-12T10:42:52;22.90;99.90
36384;DHT22;22418;51.210;6.976;2023-08-12T10:45:40;23.00;99.90
36384;DHT22;22418;51.210;6.976;2023-08-12T10:48:23;23.00;99.90
36384;DHT22;22418;51.210;6.976;2023-08-12T10:50:55;23.10;99.90
36384;DHT22;22418;51.210;6.976;2023-08-12T10:53:26;23.20;99.90
36384;DHT22;22418;51.210;6.976;2023-08-12T10:56:04;23.20;99.90
36384;DHT22;22418;51.210;6.976;2023-08-12T10:58:41;23.20;99.90
36384;DHT22;22418;51.210;6.976;2023-08-12T11:01:17;23.20;99.90
36384;DHT22;22418;51.210;6.976;2023-08-12T11:03:48;23.30;99.90
36384;DHT22;22418;51.210;6.976;2023-08-12T11:06:19;23.30;99.90
36384;DHT22;22418;51.210;6.976;2023-08-12T11:08:52;23.30;99.90
36384;DHT22;22418;51.210;6.976;2023-08-12T11:11:23;23.20;99.90
36384;DHT22;22418;51.210;6.976;2023-08-12T11:13:54;23.20;99.90
36384;DHT22;22418;51.210;6.976;2023-08-12T11:16:31;23.10;99.90
36384;DHT22;22418;51.210;6.976;2023-08-12T11:19:02;23.00;99.90
36384;DHT22;22418;51.210;6.976;2023-08-12T11:21:34;22.90;99.90
36384;DHT22;22418;51.210;6.976;2023-08-12T11:24:06;22.70;99.90
36384;DHT22;22418;51.210;6.976;2023-08-12T11:26:36;22.60;99.90
36384;DHT22;22418;51.210;6.976;2023-08-12T11:29:11;22.50;99.90
36384;DHT22;22418;51.210;6.976;2023-08-12T11:31:41;22.40;99.90
36384;DHT22;22418;51.210;6.976;2023-08-12T11:34:12;22.40;99.90
36384;DHT22;22418;51.210;6.976;2023-08-12T11:36:42;22.50;99.90
36384;DHT22;22418;51.210;6.976;2023-08-12T11:39:13;22.60;99.90
36384;DHT22;22418;51.210;6.976;2023-08-12T11:41:44;22.80;99.90
36384;DHT22;22418;51.210;6.976;2023-08-12T11:44:15;22.90;99.90
36384;DHT22;22418;51.210;6.976;2023-08-12T11:46:45;23.00;99.90
36384;DHT22;22418;51.210;6.976;2023-08-12T11:49:16;23.20;99.90
36384;DHT22;22418;51.210;6.976;2023-08-12T11:51:47;23.30;99.90
36384;DHT22;22418;51.210;6.976;2023-08-12T11:54:21;23.40;99.90
36384;DHT22;22418;51.210;6.976;2023-08-12T11:56:51;23.50;99.90
36384;DHT22;22418;51.210;6.976;2023-08-12T11:59:22;23.50;99.90
36384;DHT22;22418;51.210;6.976;2023-08-12T12:01:55;23.40;99.90
36384;DHT22;22418;51.210;6.976;2023-08-12T12:04:25;23.50;99.90
36384;DHT22;22418;51.210;6.976;2023-08-12T12:06:56;23.80;99.90
36384;DHT22;22418;51.210;6.976;2023-08-12T12:09:27;24.00;99.90
36384;DHT22;22418;51.210;6.976;2023-08-12T12:11:59;24.30;99.90
36384;DHT22;22418;51.210;6.976;2023-08-12T12:14:30;24.40;99.90
36384;DHT22;22418;51.210;6.976;2023-08-12T12:17:01;24.40;99.90
36384;DHT22;22418;51.210;6.976;2023-08-12T12:19:37;24.50;99.90
36384;DHT22;22418;51.210;6.976;2023-08-12T12:22:10;24.50;99.90
36384;DHT22;22418;51.210;6.976;2023-08-12T12:24:44;24.50;99.90
36384;DHT22;22418;51.210;6.976;2023-08-12T12:27:15;24.50;99.90
36384;DHT22;22418;51.210;6.976;2023-08-12T12:29:46;24.50;99.90
36384;DHT22;22418;51.210;6.976;2023-08-12T12:32:19;24.50;99.90
36384;DHT22;22418;51.210;6.976;2023-08-12T12:34:50;24.40;99.90
36384;DHT22;22418;51.210;6.976;2023-08-12T12:37:21;24.40;99.90
36384;DHT22;22418;51.210;6.976;2023-08-12T12:39:51;24.40;99.90
36384;DHT22;22418;51.210;6.976;2023-08-12T12:42:22;24.40;99.90
36384;DHT22;22418;51.210;6.976;2023-08-12T12:44:52;24.40;99.90
36384;DHT22;22418;51.210;6.976;2023-08-12T12:47:23;24.30;99.90
36384;DHT22;22418;51.210;6.976;2023-08-12T12:49:53;24.30;99.90
36384;DHT22;22418;51.210;6.976;2023-08-12T12:52:24;24.30;99.90
36384;DHT22;22418;51.210;6.976;2023-08-12T12:54:54;24.20;99.90
36384;DHT22;22418;51.210;6.976;2023-08-12T12:57:26;24.10;99.90
36384;DHT22;22418;51.210;6.976;2023-08-12T12:59:56;23.70;99.90
36384;DHT22;22418;51.210;6.976;2023-08-12T13:02:27;23.40;99.90
36384;DHT22;22418;51.210;6.976;2023-08-12T13:04:57;23.20;99.90
36384;DHT22;22418;51.210;6.976;2023-08-12T13:07:27;23.00;99.90
36384;DHT22;22418;51.210;6.976;2023-08-12T13:09:58;22.90;99.90
36384;DHT22;22418;51.210;6.976;2023-08-12T13:12:28;22.80;99.90
36384;DHT22;22418;51.210;6.976;2023-08-12T13:14:59;22.70;99.90
36384;DHT22;22418;51.210;6.976;2023-08-12T13:17:29;22.60;99.90
36384;DHT22;22418;51.210;6.976;2023-08-12T13:20:00;22.50;99.90
36384;DHT22;22418;51.210;6.976;2023-08-12T13:22:30;22.40;99.90
36384;DHT22;22418;51.210;6.976;2023-08-12T13:25:01;22.40;99.90
36384;DHT22;22418;51.210;6.976;2023-08-12T13:27:32;22.50;99.90
36384;DHT22;22418;51.210;6.976;2023-08-12T13:30:03;22.50;99.90
36384;DHT22;22418;51.210;6.976;2023-08-12T13:32:34;22.50;99.90
36384;DHT22;22418;51.210;6.976;2023-08-12T13:35:04;22.60;99.90
36384;DHT22;22418;51.210;6.976;2023-08-12T13:37:35;22.70;99.90
36384;DHT22;22418;51.210;6.976;2023-08-12T13:40:06;22.80;99.90
36384;DHT22;22418;51.210;6.976;2023-08-12T13:42:37;22.80;99.90
36384;DHT22;22418;51.210;6.976;2023-08-12T13:45:09;22.90;99.90
36384;DHT22;22418;51.210;6.976;2023-08-12T13:47:40;22.90;99.90
36384;DHT22;22418;51.210;6.976;2023-08-12T13:50:10;23.00;99.90
36384;DHT22;22418;51.210;6.976;2023-08-12T13:52:41;23.00;99.90
36384;DHT22;22418;51.210;6.976;2023-08-12T13:55:11;23.10;99.90
36384;DHT22;22418;51.210;6.976;2023-08-12T13:57:42;23.10;99.90
36384;DHT22;22418;51.210;6.976;2023-08-12T14:00:12;23.10;99.90
36384;DHT22;22418;51.210;6.976;2023-08-12T14:02:44;23.20;99.90
36384;DHT22;22418;51.210;6.976;2023-08-12T14:05:15;23.20;99.90
36384;DHT22;22418;51.210;6.976;2023-08-12T14:07:46;23.20;99.90
36384;DHT22;22418;51.210;6.976;2023-08-12T14:10:16;23.40;99.90
36384;DHT22;22418;51.210;6.976;2023-08-12T14:12:47;23.40;99.90
36384;DHT22;22418;51.210;6.976;2023-08-12T14:15:19;23.50;99.90
36384;DHT22;22418;51.210;6.976;2023-08-12T14:17:49;23.50;99.90
36384;DHT22;22418;51.210;6.976;2023-08-12T14:20:20;23.70;99.90
36384;DHT22;22418;51.210;6.976;2023-08-12T14:22:50;23.80;99.90
36384;DHT22;22418;51.210;6.976;2023-08-12T14:25:21;23.90;99.90
36384;DHT22;22418;51.210;6.976;2023-08-12T14:27:51;23.90;99.90
36384;DHT22;22418;51.210;6.976;2023-08-12T14:30:25;23.80;99.90
36384;DHT22;22418;51.210;6.976;2023-08-12T14:32:56;23.70;99.90
36384;DHT22;22418;51.210;6.976;2023-08-12T14:35:26;23.60;99.90
36384;DHT22;22418;51.210;6.976;2023-08-12T14:37:57;23.70;99.90
36384;DHT22;22418;51.210;6.976;2023-08-12T14:40:27;23.60;99.90
36384;DHT22;22418;51.210;6.976;2023-08-12T14:42:58;23.60;99.90
36384;DHT22;22418;51.210;6.976;2023-08-12T14:45:28;23.40;99.90
36384;DHT22;22418;51.210;6.976;2023-08-12T14:47:59;23.30;99.90
36384;DHT22;22418;51.210;6.976;2023-08-12T14:50:29;23.10;99.90
36384;DHT22;22418;51.210;6.976;2023-08-12T14:53:00;23.00;99.90
36384;DHT22;22418;51.210;6.976;2023-08-12T14:55:30;23.00;99.90
36384;DHT22;22418;51.210;6.976;2023-08-12T14:58:01;22.90;99.90
36384;DHT22;22418;51.210;6.976;2023-08-12T15:00:31;22.90;99.90
36384;DHT22;22418;51.210;6.976;2023-08-12T15:03:04;22.90;99.90
36384;DHT22;22418;51.210;6.976;2023-08-12T15:05:34;23.00;99.90
36384;DHT22;22418;51.210;6.976;2023-08-12T15:08:05;23.00;99.90
36384;DHT22;22418;51.210;6.976;2023-08-12T15:10:35;23.00;99.90
36384;DHT22;22418;51.210;6.976;2023-08-12T15:13:06;23.10;99.90
36384;DHT22;22418;51.210;6.976;2023-08-12T15:15:36;23.00;99.90
36384;DHT22;22418;51.210;6.976;2023-08-12T15:18:07;22.90;99.90
36384;DHT22;22418;51.210;6.976;2023-08-12T15:20:37;22.90;99.90
36384;DHT22;22418;51.210;6.976;2023-08-12T15:23:08;22.80;99.90
36384;DHT22;22418;51.210;6.976;2023-08-12T15:25:42;22.70;99.90
36384;DHT22;22418;51.210;6.976;2023-08-12T15:28:13;22.70;99.90
36384;DHT22;22418;51.210;6.976;2023-08-12T15:30:43;22.70;99.90
36384;DHT22;22418;51.210;6.976;2023-08-12T15:33:17;22.60;99.90
36384;DHT22;22418;51.210;6.976;2023-08-12T15:35:47;22.50;99.90
36384;DHT22;22418;51.210;6.976;2023-08-12T15:38:19;22.50;99.90
36384;DHT22;22418;51.210;6.976;2023-08-12T15:40:49;22.40;99.90
36384;DHT22;22418;51.210;6.976;2023-08-12T15:43:20;22.40;99.90
36384;DHT22;22418;51.210;6.976;2023-08-12T15:45:50;22.40;99.90
36384;DHT22;22418;51.210;6.976;2023-08-12T15:48:21;22.30;99.90
36384;DHT22;22418;51.210;6.976;2023-08-12T15:50:51;22.30;99.90
36384;DHT22;22418;51.210;6.976;2023-08-12T15:53:22;22.30;99.90
36384;DHT22;22418;51.210;6.976;2023-08-12T15:55:53;22.30;99.90